sensor_id;sensor_type;location;lat;lon;timestamp;temperature;humidity
17146;DHT22;8688;54.444;18.444;2023-09-08T00:01:51;14.00;99.90
17146;DHT22;8688;54.444;18.444;2023-09-08T00:04:20;13.90;99.90
17146;DHT22;8688;54.444;18.444;2023-09-08T00:06:48;13.90;99.90
17146;DHT22;8688;54.444;18.444;2023-09-08T00:09:15;13.90;99.90
17146;DHT22;8688;54.444;18.444;2023-09-08T00:11:43;13.80;99.90
17146;DHT22;8688;54.444;18.444;2023-09-08T00:14:10;13.70;99.90
17146;DHT22;8688;54.444;18.444;2023-09-08T00:16:38;13.70;99.90
17146;DHT22;8688;54.444;18.444;2023-09-08T00:19:08;13.60;99.90
17146;DHT22;8688;54.444;18.444;2023-09-08T00:21:38;13.60;99.90
17146;DHT22;8688;54.444;18.444;2023-09-08T00:24:06;13.50;99.90
17146;DHT22;8688;54.444;18.444;2023-09-08T00:26:33;13.50;99.90
17146;DHT22;8688;54.444;18.444;2023-09-08T00:29:01;13.50;99.90
17146;DHT22;8688;54.444;18.444;2023-09-08T00:31:28;13.50;99.90
17146;DHT22;8688;54.444;18.444;2023-09-08T00:33:56;13.50;99.90
17146;DHT22;8688;54.444;18.444;2023-09-08T00:36:23;13.50;99.90
17146;DHT22;8688;54.444;18.444;2023-09-08T00:38:52;13.40;99.90
17146;DHT22;8688;54.444;18.444;2023-09-08T00:41:20;13.40;99.90
17146;DHT22;8688;54.444;18.444;2023-09-08T00:43:49;13.40;99.90
17146;DHT22;8688;54.444;18.444;2023-09-08T00:46:17;13.30;99.90
17146;DHT22;8688;54.444;18.444;2023-09-08T00:48:45;13.30;99.90
17146;DHT22;8688;54.444;18.444;2023-09-08T00:51:13;13.40;99.90
17146;DHT22;8688;54.444;18.444;2023-09-08T00:53:41;13.30;99.90
17146;DHT22;8688;54.444;18.444;2023-09-08T00:56:11;13.40;99.90
17146;DHT22;8688;54.444;18.444;2023-09-08T00:58:39;13.30;99.90
17146;DHT22;8688;54.444;18.444;2023-09-08T01:01:07;13.30;99.90
17146;DHT22;8688;54.444;18.444;2023-09-08T01:03:34;13.30;99.90
17146;DHT22;8688;54.444;18.444;2023-09-08T01:06:02;13.30;99.90
17146;DHT22;8688;54.444;18.444;2023-09-08T01:08:31;13.20;99.90
17146;DHT22;8688;54.444;18.444;2023-09-08T01:10:58;13.20;99.90
17146;DHT22;8688;54.444;18.444;2023-09-08T01:13:28;13.20;99.90
17146;DHT22;8688;54.444;18.444;2023-09-08T01:15:55;13.10;99.90
17146;DHT22;8688;54.444;18.444;2023-09-08T01:18:23;13.10;99.90
17146;DHT22;8688;54.444;18.444;2023-09-08T01:24:22;13.00;99.90
17146;DHT22;8688;54.444;18.444;2023-09-08T01:26:55;13.00;99.90
17146;DHT22;8688;54.444;18.444;2023-09-08T01:29:23;13.00;99.90
17146;DHT22;8688;54.444;18.444;2023-09-08T01:31:51;12.90;99.90
17146;DHT22;8688;54.444;18.444;2023-09-08T01:34:19;12.90;99.90
17146;DHT22;8688;54.444;18.444;2023-09-08T01:36:47;12.90;99.90
17146;DHT22;8688;54.444;18.444;2023-09-08T01:39:15;12.90;99.90
17146;DHT22;8688;54.444;18.444;2023-09-08T01:41:42;12.90;99.90
17146;DHT22;8688;54.444;18.444;2023-09-08T01:44:11;12.90;99.90
17146;DHT22;8688;54.444;18.444;2023-09-08T01:46:39;12.90;99.90
17146;DHT22;8688;54.444;18.444;2023-09-08T01:49:07;12.80;99.90
17146;DHT22;8688;54.444;18.444;2023-09-08T01:51:34;12.80;99.90
17146;DHT22;8688;54.444;18.444;2023-09-08T01:54:02;12.80;99.90
17146;DHT22;8688;54.444;18.444;2023-09-08T01:56:29;12.80;99.90
17146;DHT22;8688;54.444;18.444;2023-09-08T01:58:57;12.80;99.90
17146;DHT22;8688;54.444;18.444;2023-09-08T02:01:26;12.80;99.90
17146;DHT22;8688;54.444;18.444;2023-09-08T02:03:54;12.70;99.90
17146;DHT22;8688;54.444;18.444;2023-09-08T02:06:21;12.60;99.90
17146;DHT22;8688;54.444;18.444;2023-09-08T02:08:49;12.60;99.90
17146;DHT22;8688;54.444;18.444;2023-09-08T02:11:16;12.60;99.90
17146;DHT22;8688;54.444;18.444;2023-09-08T02:13:44;12.60;99.90
17146;DHT22;8688;54.444;18.444;2023-09-08T02:16:13;12.60;99.90
17146;DHT22;8688;54.444;18.444;2023-09-08T02:18:43;12.60;99.90
17146;DHT22;8688;54.444;18.444;2023-09-08T02:21:10;12.60;99.90
17146;DHT22;8688;54.444;18.444;2023-09-08T02:23:38;12.60;99.90
17146;DHT22;8688;54.444;18.444;2023-09-08T02:26:05;12.60;99.90
17146;DHT22;8688;54.444;18.444;2023-09-08T02:28:33;12.60;99.90
17146;DHT22;8688;54.444;18.444;2023-09-08T02:31:00;12.60;99.90
17146;DHT22;8688;54.444;18.444;2023-09-08T02:33:28;12.50;99.90
17146;DHT22;8688;54.444;18.444;2023-09-08T02:36:02;12.50;99.90
17146;DHT22;8688;54.444;18.444;2023-09-08T02:38:29;12.40;99.90
17146;DHT22;8688;54.444;18.444;2023-09-08T02:40:57;12.40;99.90
17146;DHT22;8688;54.444;18.444;2023-09-08T02:43:25;12.40;99.90
17146;DHT22;8688;54.444;18.444;2023-09-08T02:45:53;12.40;99.90
17146;DHT22;8688;54.444;18.444;2023-09-08T02:48:20;12.40;99.90
17146;DHT22;8688;54.444;18.444;2023-09-08T02:50:48;12.40;99.90
17146;DHT22;8688;54.444;18.444;2023-09-08T02:53:17;12.50;99.90
17146;DHT22;8688;54.444;18.444;2023-09-08T02:55:46;12.50;99.90
17146;DHT22;8688;54.444;18.444;2023-09-08T02:58:13;12.50;99.90
17146;DHT22;8688;54.444;18.444;2023-09-08T03:00:41;12.40;99.90
17146;DHT22;8688;54.444;18.444;2023-09-08T03:03:08;12.50;99.90
17146;DHT22;8688;54.444;18.444;2023-09-08T03:05:36;12.40;99.90
17146;DHT22;8688;54.444;18.444;2023-09-08T03:08:04;12.40;99.90
17146;DHT22;8688;54.444;18.444;2023-09-08T03:10:33;12.30;99.90
17146;DHT22;8688;54.444;18.444;2023-09-08T03:13:01;12.20;99.90
17146;DHT22;8688;54.444;18.444;2023-09-08T03:15:29;12.20;99.90
17146;DHT22;8688;54.444;18.444;2023-09-08T03:17:57;12.20;99.90
17146;DHT22;8688;54.444;18.444;2023-09-08T03:20:26;12.10;99.90
17146;DHT22;8688;54.444;18.444;2023-09-08T03:22:54;12.10;99.90
17146;DHT22;8688;54.444;18.444;2023-09-08T03:25:22;12.10;99.90
17146;DHT22;8688;54.444;18.444;2023-09-08T03:27:51;12.10;99.90
17146;DHT22;8688;54.444;18.444;2023-09-08T03:30:19;12.10;99.90
17146;DHT22;8688;54.444;18.444;2023-09-08T03:32:46;12.10;99.90
17146;DHT22;8688;54.444;18.444;2023-09-08T03:35:14;12.10;99.90
17146;DHT22;8688;54.444;18.444;2023-09-08T03:37:41;12.20;99.90
17146;DHT22;8688;54.444;18.444;2023-09-08T03:40:10;12.10;99.90
17146;DHT22;8688;54.444;18.444;2023-09-08T03:42:37;12.20;99.90
17146;DHT22;8688;54.444;18.444;2023-09-08T03:45:09;12.10;99.90
17146;DHT22;8688;54.444;18.444;2023-09-08T03:47:36;12.20;99.90
17146;DHT22;8688;54.444;18.444;2023-09-08T03:50:05;12.20;99.90
17146;DHT22;8688;54.444;18.444;2023-09-08T03:52:33;12.20;99.90
17146;DHT22;8688;54.444;18.444;2023-09-08T03:55:01;12.20;99.90
17146;DHT22;8688;54.444;18.444;2023-09-08T03:57:28;12.10;99.90
17146;DHT22;8688;54.444;18.444;2023-09-08T03:59:56;12.10;99.90
17146;DHT22;8688;54.444;18.444;2023-09-08T04:02:25;12.20;99.90
17146;DHT22;8688;54.444;18.444;2023-09-08T04:04:52;12.20;99.90
17146;DHT22;8688;54.444;18.444;2023-09-08T04:07:20;12.20;99.90
17146;DHT22;8688;54.444;18.444;2023-09-08T04:09:47;12.20;99.90
17146;DHT22;8688;54.444;18.444;2023-09-08T04:12:15;12.20;99.90
17146;DHT22;8688;54.444;18.444;2023-09-08T04:14:42;12.20;99.90
17146;DHT22;8688;54.444;18.444;2023-09-08T04:17:10;12.20;99.90
17146;DHT22;8688;54.444;18.444;2023-09-08T04:19:39;12.20;99.90
17146;DHT22;8688;54.444;18.444;2023-09-08T04:22:07;12.20;99.90
17146;DHT22;8688;54.444;18.444;2023-09-08T04:24:35;12.20;99.90
17146;DHT22;8688;54.444;18.444;2023-09-08T04:27:03;12.20;99.90
17146;DHT22;8688;54.444;18.444;2023-09-08T04:29:32;12.20;99.90
17146;DHT22;8688;54.444;18.444;2023-09-08T04:31:59;12.20;99.90
17146;DHT22;8688;54.444;18.444;2023-09-08T04:34:27;12.20;99.90
17146;DHT22;8688;54.444;18.444;2023-09-08T04:36:56;12.20;99.90
17146;DHT22;8688;54.444;18.444;2023-09-08T04:39:23;12.30;99.90
17146;DHT22;8688;54.444;18.444;2023-09-08T04:41:51;12.30;99.90
17146;DHT22;8688;54.444;18.444;2023-09-08T04:44:18;12.30;99.90
17146;DHT22;8688;54.444;18.444;2023-09-08T04:46:46;12.40;99.90
17146;DHT22;8688;54.444;18.444;2023-09-08T04:49:13;12.40;99.90
17146;DHT22;8688;54.444;18.444;2023-09-08T04:51:41;12.40;99.90
17146;DHT22;8688;54.444;18.444;2023-09-08T04:54:10;12.40;99.90
17146;DHT22;8688;54.444;18.444;2023-09-08T04:56:38;12.50;99.90
17146;DHT22;8688;54.444;18.444;2023-09-08T04:59:06;12.50;99.90
17146;DHT22;8688;54.444;18.444;2023-09-08T05:01:33;12.60;99.90
17146;DHT22;8688;54.444;18.444;2023-09-08T05:04:03;12.60;99.90
17146;DHT22;8688;54.444;18.444;2023-09-08T05:06:31;12.60;99.90
17146;DHT22;8688;54.444;18.444;2023-09-08T05:08:59;12.70;99.90
17146;DHT22;8688;54.444;18.444;2023-09-08T05:11:28;12.80;99.90
17146;DHT22;8688;54.444;18.444;2023-09-08T05:13:55;12.80;99.90
17146;DHT22;8688;54.444;18.444;2023-09-08T05:16:23;12.90;99.90
17146;DHT22;8688;54.444;18.444;2023-09-08T05:19:03;12.90;99.90
17146;DHT22;8688;54.444;18.444;2023-09-08T05:21:31;13.00;99.90
17146;DHT22;8688;54.444;18.444;2023-09-08T05:23:59;13.10;99.90
17146;DHT22;8688;54.444;18.444;2023-09-08T05:26:28;13.10;99.90
17146;DHT22;8688;54.444;18.444;2023-09-08T05:28:55;13.20;99.90
17146;DHT22;8688;54.444;18.444;2023-09-08T05:31:32;13.20;99.90
17146;DHT22;8688;54.444;18.444;2023-09-08T05:34:00;13.30;99.90
17146;DHT22;8688;54.444;18.444;2023-09-08T05:36:29;13.40;99.90
17146;DHT22;8688;54.444;18.444;2023-09-08T05:38:57;13.50;99.90
17146;DHT22;8688;54.444;18.444;2023-09-08T05:41:24;13.50;99.90
17146;DHT22;8688;54.444;18.444;2023-09-08T05:43:53;13.60;99.90
17146;DHT22;8688;54.444;18.444;2023-09-08T05:46:21;13.70;99.90
17146;DHT22;8688;54.444;18.444;2023-09-08T05:48:49;13.80;99.90
17146;DHT22;8688;54.444;18.444;2023-09-08T05:51:16;13.90;99.90
17146;DHT22;8688;54.444;18.444;2023-09-08T05:53:44;13.90;99.90
17146;DHT22;8688;54.444;18.444;2023-09-08T05:56:11;14.00;99.90
17146;DHT22;8688;54.444;18.444;2023-09-08T05:58:39;14.10;99.90
17146;DHT22;8688;54.444;18.444;2023-09-08T06:01:08;14.20;99.90
17146;DHT22;8688;54.444;18.444;2023-09-08T06:03:36;14.30;99.90
17146;DHT22;8688;54.444;18.444;2023-09-08T06:06:03;14.40;99.90
17146;DHT22;8688;54.444;18.444;2023-09-08T06:08:31;14.50;99.90
17146;DHT22;8688;54.444;18.444;2023-09-08T06:10:58;14.60;99.90
17146;DHT22;8688;54.444;18.444;2023-09-08T06:13:26;14.70;99.90
17146;DHT22;8688;54.444;18.444;2023-09-08T06:15:53;14.80;99.90
17146;DHT22;8688;54.444;18.444;2023-09-08T06:18:27;14.90;99.90
17146;DHT22;8688;54.444;18.444;2023-09-08T06:20:55;15.00;99.90
17146;DHT22;8688;54.444;18.444;2023-09-08T06:23:22;15.10;99.90
17146;DHT22;8688;54.444;18.444;2023-09-08T06:25:50;15.20;99.90
17146;DHT22;8688;54.444;18.444;2023-09-08T06:28:18;15.30;99.90
17146;DHT22;8688;54.444;18.444;2023-09-08T06:30:45;15.40;99.90
17146;DHT22;8688;54.444;18.444;2023-09-08T06:33:13;15.50;99.90
17146;DHT22;8688;54.444;18.444;2023-09-08T06:35:42;15.60;99.90
17146;DHT22;8688;54.444;18.444;2023-09-08T06:38:10;15.70;99.90
17146;DHT22;8688;54.444;18.444;2023-09-08T06:40:37;15.80;99.90
17146;DHT22;8688;54.444;18.444;2023-09-08T06:43:05;15.80;99.90
17146;DHT22;8688;54.444;18.444;2023-09-08T06:45:32;15.90;99.90
17146;DHT22;8688;54.444;18.444;2023-09-08T06:48:00;16.00;99.90
17146;DHT22;8688;54.444;18.444;2023-09-08T06:50:28;16.10;99.90
17146;DHT22;8688;54.444;18.444;2023-09-08T06:52:57;16.30;99.90
17146;DHT22;8688;54.444;18.444;2023-09-08T06:55:26;16.40;99.90
17146;DHT22;8688;54.444;18.444;2023-09-08T06:57:54;16.50;99.90
17146;DHT22;8688;54.444;18.444;2023-09-08T07:00:23;16.70;99.90
17146;DHT22;8688;54.444;18.444;2023-09-08T07:02:51;16.90;99.90
17146;DHT22;8688;54.444;18.444;2023-09-08T07:05:18;17.00;99.90
17146;DHT22;8688;54.444;18.444;2023-09-08T07:07:46;17.10;99.90
17146;DHT22;8688;54.444;18.444;2023-09-08T07:10:15;17.30;99.90
17146;DHT22;8688;54.444;18.444;2023-09-08T07:12:42;17.40;99.90
17146;DHT22;8688;54.444;18.444;2023-09-08T07:15:11;17.60;99.90
17146;DHT22;8688;54.444;18.444;2023-09-08T07:17:38;17.80;99.90
17146;DHT22;8688;54.444;18.444;2023-09-08T07:20:07;17.80;99.90
17146;DHT22;8688;54.444;18.444;2023-09-08T07:22:35;17.90;99.90
17146;DHT22;8688;54.444;18.444;2023-09-08T07:25:04;18.00;99.90
17146;DHT22;8688;54.444;18.444;2023-09-08T07:27:33;18.20;99.90
17146;DHT22;8688;54.444;18.444;2023-09-08T07:30:00;18.30;99.90
17146;DHT22;8688;54.444;18.444;2023-09-08T07:32:28;18.40;99.90
17146;DHT22;8688;54.444;18.444;2023-09-08T07:34:56;18.50;99.90
17146;DHT22;8688;54.444;18.444;2023-09-08T07:37:24;18.60;99.90
17146;DHT22;8688;54.444;18.444;2023-09-08T07:39:51;18.70;99.90
17146;DHT22;8688;54.444;18.444;2023-09-08T07:42:19;18.90;99.90
17146;DHT22;8688;54.444;18.444;2023-09-08T07:44:48;19.00;81.90
17146;DHT22;8688;54.444;18.444;2023-09-08T07:47:15;19.10;35.90
17146;DHT22;8688;54.444;18.444;2023-09-08T07:49:45;19.20;12.10
17146;DHT22;8688;54.444;18.444;2023-09-08T07:52:13;19.30;1.00
17146;DHT22;8688;54.444;18.444;2023-09-08T07:54:41;19.40;1.00
17146;DHT22;8688;54.444;18.444;2023-09-08T07:57:08;19.50;1.00
17146;DHT22;8688;54.444;18.444;2023-09-08T07:59:36;19.60;1.00
17146;DHT22;8688;54.444;18.444;2023-09-08T08:02:05;19.90;1.00
17146;DHT22;8688;54.444;18.444;2023-09-08T08:04:32;20.10;1.00
17146;DHT22;8688;54.444;18.444;2023-09-08T08:07:00;20.20;1.00
17146;DHT22;8688;54.444;18.444;2023-09-08T08:09:28;20.30;1.00
17146;DHT22;8688;54.444;18.444;2023-09-08T08:11:55;20.40;1.00
17146;DHT22;8688;54.444;18.444;2023-09-08T08:14:23;20.50;1.00
17146;DHT22;8688;54.444;18.444;2023-09-08T08:16:51;20.60;1.00
17146;DHT22;8688;54.444;18.444;2023-09-08T08:19:20;20.90;99.90
17146;DHT22;8688;54.444;18.444;2023-09-08T08:21:47;21.00;99.90
17146;DHT22;8688;54.444;18.444;2023-09-08T08:24:15;21.10;1.00
17146;DHT22;8688;54.444;18.444;2023-09-08T08:26:43;21.40;1.00
17146;DHT22;8688;54.444;18.444;2023-09-08T08:29:11;21.40;1.00
17146;DHT22;8688;54.444;18.444;2023-09-08T08:31:38;21.40;3.30
17146;DHT22;8688;54.444;18.444;2023-09-08T08:34:06;21.40;1.00
17146;DHT22;8688;54.444;18.444;2023-09-08T08:36:36;21.30;99.90
17146;DHT22;8688;54.444;18.444;2023-09-08T08:39:04;21.40;1.00
17146;DHT22;8688;54.444;18.444;2023-09-08T08:41:32;21.40;1.00
17146;DHT22;8688;54.444;18.444;2023-09-08T08:44:04;21.60;99.90
17146;DHT22;8688;54.444;18.444;2023-09-08T08:46:34;21.70;1.00
17146;DHT22;8688;54.444;18.444;2023-09-08T08:49:04;21.90;99.90
17146;DHT22;8688;54.444;18.444;2023-09-08T08:51:32;22.00;99.90
17146;DHT22;8688;54.444;18.444;2023-09-08T08:54:01;22.10;1.00
17146;DHT22;8688;54.444;18.444;2023-09-08T08:56:30;22.10;1.00
17146;DHT22;8688;54.444;18.444;2023-09-08T08:58:58;22.10;99.90
17146;DHT22;8688;54.444;18.444;2023-09-08T09:01:27;22.00;99.90
17146;DHT22;8688;54.444;18.444;2023-09-08T09:03:55;22.10;91.60
17146;DHT22;8688;54.444;18.444;2023-09-08T09:06:24;22.20;7.40
17146;DHT22;8688;54.444;18.444;2023-09-08T09:08:52;22.20;99.90
17146;DHT22;8688;54.444;18.444;2023-09-08T09:11:21;22.30;18.40
17146;DHT22;8688;54.444;18.444;2023-09-08T09:13:48;22.20;1.00
17146;DHT22;8688;54.444;18.444;2023-09-08T09:16:16;22.40;1.00
17146;DHT22;8688;54.444;18.444;2023-09-08T09:18:54;22.40;1.00
17146;DHT22;8688;54.444;18.444;2023-09-08T09:21:22;22.50;99.90
17146;DHT22;8688;54.444;18.444;2023-09-08T09:23:50;22.50;1.00
17146;DHT22;8688;54.444;18.444;2023-09-08T09:26:26;22.70;1.00
17146;DHT22;8688;54.444;18.444;2023-09-08T09:28:53;22.90;1.00
17146;DHT22;8688;54.444;18.444;2023-09-08T09:31:25;22.90;1.00
17146;DHT22;8688;54.444;18.444;2023-09-08T09:34:10;22.90;1.00
17146;DHT22;8688;54.444;18.444;2023-09-08T09:36:42;23.10;1.00
17146;DHT22;8688;54.444;18.444;2023-09-08T09:39:12;23.20;1.00
17146;DHT22;8688;54.444;18.444;2023-09-08T09:41:41;23.40;1.00
17146;DHT22;8688;54.444;18.444;2023-09-08T09:44:10;23.40;1.00
17146;DHT22;8688;54.444;18.444;2023-09-08T09:46:37;23.50;1.00
17146;DHT22;8688;54.444;18.444;2023-09-08T09:49:05;23.60;1.00
17146;DHT22;8688;54.444;18.444;2023-09-08T09:51:40;23.60;99.90
17146;DHT22;8688;54.444;18.444;2023-09-08T09:54:09;23.60;99.90
17146;DHT22;8688;54.444;18.444;2023-09-08T09:56:40;23.70;99.90
17146;DHT22;8688;54.444;18.444;2023-09-08T09:59:09;23.70;99.90
17146;DHT22;8688;54.444;18.444;2023-09-08T10:01:37;23.70;99.90
17146;DHT22;8688;54.444;18.444;2023-09-08T10:04:06;23.60;99.90
17146;DHT22;8688;54.444;18.444;2023-09-08T10:06:35;23.50;99.90
17146;DHT22;8688;54.444;18.444;2023-09-08T10:09:04;23.50;99.90
17146;DHT22;8688;54.444;18.444;2023-09-08T10:11:37;23.50;99.90
17146;DHT22;8688;54.444;18.444;2023-09-08T10:14:07;23.60;99.90
17146;DHT22;8688;54.444;18.444;2023-09-08T10:16:39;23.60;99.90
17146;DHT22;8688;54.444;18.444;2023-09-08T10:19:09;23.70;99.90
17146;DHT22;8688;54.444;18.444;2023-09-08T10:21:40;23.60;99.90
17146;DHT22;8688;54.444;18.444;2023-09-08T10:24:13;23.50;99.90
17146;DHT22;8688;54.444;18.444;2023-09-08T10:26:44;23.50;99.90
17146;DHT22;8688;54.444;18.444;2023-09-08T10:29:15;23.40;99.90
17146;DHT22;8688;54.444;18.444;2023-09-08T10:31:45;23.40;99.90
17146;DHT22;8688;54.444;18.444;2023-09-08T10:34:12;23.50;99.90
17146;DHT22;8688;54.444;18.444;2023-09-08T10:36:40;23.60;99.90
17146;DHT22;8688;54.444;18.444;2023-09-08T10:39:29;23.70;99.90
17146;DHT22;8688;54.444;18.444;2023-09-08T10:42:21;23.80;99.90
17146;DHT22;8688;54.444;18.444;2023-09-08T10:45:02;23.90;99.90
17146;DHT22;8688;54.444;18.444;2023-09-08T10:47:55;24.00;99.90
17146;DHT22;8688;54.444;18.444;2023-09-08T10:50:29;24.10;99.90
17146;DHT22;8688;54.444;18.444;2023-09-08T10:53:10;24.10;99.90
17146;DHT22;8688;54.444;18.444;2023-09-08T10:55:40;24.20;99.90
17146;DHT22;8688;54.444;18.444;2023-09-08T10:58:18;24.30;99.90
17146;DHT22;8688;54.444;18.444;2023-09-08T11:00:51;24.40;99.90
17146;DHT22;8688;54.444;18.444;2023-09-08T11:03:27;24.40;99.90
17146;DHT22;8688;54.444;18.444;2023-09-08T11:05:56;24.50;99.90
17146;DHT22;8688;54.444;18.444;2023-09-08T11:08:25;24.50;99.90
17146;DHT22;8688;54.444;18.444;2023-09-08T11:10:52;24.50;99.90
17146;DHT22;8688;54.444;18.444;2023-09-08T11:13:20;24.50;99.90
17146;DHT22;8688;54.444;18.444;2023-09-08T11:15:51;24.50;99.90
17146;DHT22;8688;54.444;18.444;2023-09-08T11:18:26;24.50;99.90
17146;DHT22;8688;54.444;18.444;2023-09-08T11:20:53;24.50;99.90
17146;DHT22;8688;54.444;18.444;2023-09-08T11:23:21;24.60;99.90
17146;DHT22;8688;54.444;18.444;2023-09-08T11:25:50;24.70;99.90
17146;DHT22;8688;54.444;18.444;2023-09-08T11:28:18;24.70;99.90
17146;DHT22;8688;54.444;18.444;2023-09-08T11:30:49;24.70;99.90
17146;DHT22;8688;54.444;18.444;2023-09-08T11:33:17;24.70;99.90
17146;DHT22;8688;54.444;18.444;2023-09-08T11:35:46;24.70;99.90
17146;DHT22;8688;54.444;18.444;2023-09-08T11:38:16;24.80;99.90
17146;DHT22;8688;54.444;18.444;2023-09-08T11:40:43;24.90;99.90
17146;DHT22;8688;54.444;18.444;2023-09-08T11:43:12;24.90;99.90
17146;DHT22;8688;54.444;18.444;2023-09-08T11:45:39;25.00;99.90
17146;DHT22;8688;54.444;18.444;2023-09-08T11:48:13;25.10;99.90
17146;DHT22;8688;54.444;18.444;2023-09-08T11:50:41;25.20;99.90
17146;DHT22;8688;54.444;18.444;2023-09-08T11:53:09;25.20;99.90
17146;DHT22;8688;54.444;18.444;2023-09-08T11:55:37;25.20;99.90
17146;DHT22;8688;54.444;18.444;2023-09-08T11:58:05;25.10;99.90
17146;DHT22;8688;54.444;18.444;2023-09-08T12:00:33;25.10;99.90
17146;DHT22;8688;54.444;18.444;2023-09-08T12:03:12;25.10;99.90
17146;DHT22;8688;54.444;18.444;2023-09-08T12:05:41;25.00;99.90
17146;DHT22;8688;54.444;18.444;2023-09-08T12:08:09;25.00;99.90
17146;DHT22;8688;54.444;18.444;2023-09-08T12:10:40;25.00;99.90
17146;DHT22;8688;54.444;18.444;2023-09-08T12:13:09;24.90;99.90
17146;DHT22;8688;54.444;18.444;2023-09-08T12:15:38;25.00;99.90
17146;DHT22;8688;54.444;18.444;2023-09-08T12:18:07;25.20;99.90
17146;DHT22;8688;54.444;18.444;2023-09-08T12:20:37;25.40;99.90
17146;DHT22;8688;54.444;18.444;2023-09-08T12:23:06;25.40;99.90
17146;DHT22;8688;54.444;18.444;2023-09-08T12:25:44;25.50;99.90
17146;DHT22;8688;54.444;18.444;2023-09-08T12:28:12;25.60;99.90
17146;DHT22;8688;54.444;18.444;2023-09-08T12:30:40;25.40;99.90
17146;DHT22;8688;54.444;18.444;2023-09-08T12:33:08;25.40;99.90
17146;DHT22;8688;54.444;18.444;2023-09-08T12:35:38;25.40;99.90
17146;DHT22;8688;54.444;18.444;2023-09-08T12:38:06;25.40;99.90
17146;DHT22;8688;54.444;18.444;2023-09-08T12:40:35;25.30;99.90
17146;DHT22;8688;54.444;18.444;2023-09-08T12:43:03;25.40;99.90
17146;DHT22;8688;54.444;18.444;2023-09-08T12:45:31;25.50;99.90
17146;DHT22;8688;54.444;18.444;2023-09-08T12:48:00;25.60;99.90
17146;DHT22;8688;54.444;18.444;2023-09-08T12:50:29;25.70;99.90
17146;DHT22;8688;54.444;18.444;2023-09-08T12:52:59;25.70;99.90
17146;DHT22;8688;54.444;18.444;2023-09-08T12:55:26;25.60;99.90
17146;DHT22;8688;54.444;18.444;2023-09-08T12:57:54;25.40;99.90
17146;DHT22;8688;54.444;18.444;2023-09-08T13:00:22;25.40;99.90
17146;DHT22;8688;54.444;18.444;2023-09-08T13:02:51;25.40;99.90
17146;DHT22;8688;54.444;18.444;2023-09-08T13:05:19;25.50;99.90
17146;DHT22;8688;54.444;18.444;2023-09-08T13:07:46;25.50;99.90
17146;DHT22;8688;54.444;18.444;2023-09-08T13:10:16;25.40;99.90
17146;DHT22;8688;54.444;18.444;2023-09-08T13:12:44;25.50;99.90
17146;DHT22;8688;54.444;18.444;2023-09-08T13:15:12;25.50;99.90
17146;DHT22;8688;54.444;18.444;2023-09-08T13:17:40;25.50;99.90
17146;DHT22;8688;54.444;18.444;2023-09-08T13:20:10;25.40;99.90
17146;DHT22;8688;54.444;18.444;2023-09-08T13:22:38;25.30;99.90
17146;DHT22;8688;54.444;18.444;2023-09-08T13:25:07;25.40;99.90
17146;DHT22;8688;54.444;18.444;2023-09-08T13:27:37;25.40;99.90
17146;DHT22;8688;54.444;18.444;2023-09-08T13:30:09;25.30;99.90
17146;DHT22;8688;54.444;18.444;2023-09-08T13:32:37;25.40;99.90
17146;DHT22;8688;54.444;18.444;2023-09-08T13:35:06;25.40;99.90
17146;DHT22;8688;54.444;18.444;2023-09-08T13:37:35;25.40;99.90
17146;DHT22;8688;54.444;18.444;2023-09-08T13:40:04;25.50;99.90
17146;DHT22;8688;54.444;18.444;2023-09-08T13:42:32;25.60;99.90
17146;DHT22;8688;54.444;18.444;2023-09-08T13:45:02;25.70;99.90
17146;DHT22;8688;54.444;18.444;2023-09-08T13:47:31;25.60;99.90
17146;DHT22;8688;54.444;18.444;2023-09-08T13:50:00;25.60;99.90
17146;DHT22;8688;54.444;18.444;2023-09-08T13:52:29;25.70;99.90
17146;DHT22;8688;54.444;18.444;2023-09-08T13:54:58;25.70;99.90
17146;DHT22;8688;54.444;18.444;2023-09-08T13:57:26;25.80;99.90
17146;DHT22;8688;54.444;18.444;2023-09-08T13:59:54;25.80;99.90
17146;DHT22;8688;54.444;18.444;2023-09-08T14:02:24;25.80;99.90
17146;DHT22;8688;54.444;18.444;2023-09-08T14:04:53;25.80;99.90
17146;DHT22;8688;54.444;18.444;2023-09-08T14:07:22;25.70;99.90
17146;DHT22;8688;54.444;18.444;2023-09-08T14:09:50;25.80;99.90
17146;DHT22;8688;54.444;18.444;2023-09-08T14:12:18;25.70;99.90
17146;DHT22;8688;54.444;18.444;2023-09-08T14:14:47;25.80;99.90
17146;DHT22;8688;54.444;18.444;2023-09-08T14:17:15;25.80;99.90
17146;DHT22;8688;54.444;18.444;2023-09-08T14:19:45;25.90;99.90
17146;DHT22;8688;54.444;18.444;2023-09-08T14:22:13;25.90;99.90
17146;DHT22;8688;54.444;18.444;2023-09-08T14:24:42;25.70;99.90
17146;DHT22;8688;54.444;18.444;2023-09-08T14:27:11;25.60;99.90
17146;DHT22;8688;54.444;18.444;2023-09-08T14:29:40;25.40;99.90
17146;DHT22;8688;54.444;18.444;2023-09-08T14:32:09;25.30;99.90
17146;DHT22;8688;54.444;18.444;2023-09-08T14:34:38;25.30;99.90
17146;DHT22;8688;54.444;18.444;2023-09-08T14:37:08;25.50;99.90
17146;DHT22;8688;54.444;18.444;2023-09-08T14:39:36;25.50;99.90
17146;DHT22;8688;54.444;18.444;2023-09-08T14:42:04;25.50;99.90
17146;DHT22;8688;54.444;18.444;2023-09-08T14:44:33;25.50;99.90
17146;DHT22;8688;54.444;18.444;2023-09-08T14:47:02;25.50;99.90
17146;DHT22;8688;54.444;18.444;2023-09-08T14:49:30;25.40;99.90
17146;DHT22;8688;54.444;18.444;2023-09-08T14:51:58;25.30;99.90
17146;DHT22;8688;54.444;18.444;2023-09-08T14:54:28;25.10;99.90
17146;DHT22;8688;54.444;18.444;2023-09-08T14:56:56;25.00;99.90
17146;DHT22;8688;54.444;18.444;2023-09-08T14:59:24;25.10;99.90
17146;DHT22;8688;54.444;18.444;2023-09-08T15:01:53;25.00;99.90
17146;DHT22;8688;54.444;18.444;2023-09-08T15:04:21;24.90;99.90
17146;DHT22;8688;54.444;18.444;2023-09-08T15:06:48;24.70;99.90
17146;DHT22;8688;54.444;18.444;2023-09-08T15:09:16;24.70;99.90
17146;DHT22;8688;54.444;18.444;2023-09-08T15:11:46;24.70;99.90
17146;DHT22;8688;54.444;18.444;2023-09-08T15:14:14;24.60;99.90
17146;DHT22;8688;54.444;18.444;2023-09-08T15:16:43;24.50;99.90
17146;DHT22;8688;54.444;18.444;2023-09-08T15:19:12;24.50;99.90
17146;DHT22;8688;54.444;18.444;2023-09-08T15:21:41;24.50;99.90
17146;DHT22;8688;54.444;18.444;2023-09-08T15:24:09;24.50;99.90
17146;DHT22;8688;54.444;18.444;2023-09-08T15:26:38;24.50;99.90
17146;DHT22;8688;54.444;18.444;2023-09-08T15:29:07;24.50;99.90
17146;DHT22;8688;54.444;18.444;2023-09-08T15:31:35;24.50;99.90
17146;DHT22;8688;54.444;18.444;2023-09-08T15:34:04;24.50;99.90
17146;DHT22;8688;54.444;18.444;2023-09-08T15:36:33;24.50;99.90
17146;DHT22;8688;54.444;18.444;2023-09-08T15:39:02;24.30;99.90
17146;DHT22;8688;54.444;18.444;2023-09-08T15:41:31;24.10;99.90
17146;DHT22;8688;54.444;18.444;2023-09-08T15:43:59;24.00;99.90
17146;DHT22;8688;54.444;18.444;2023-09-08T15:46:29;24.00;99.90